Desoto — WDE3761 — position and weather

sailwx.info

Track history (hours):
 
Tides and Currents Weather Stations Pressure Air Temp Water Temp Dewpoint Dewpoint Depression Visibility Wind Speed Wind Dir Waves Ship Positions

Desoto

More information available from US FCC via Universal Licensing System and Coast Guard Vessel Documentation Center.

Last reported at 2014-Sep-20 04:33 UTC. Time now 2014-Sep-20 06:01 UTC.
Position N 27°35' W 082°46'.

Length 18 m.

Type: Pilot. MMSI: 367343870.

Date/timePositionNaut miles runAvg speedWind from/ knotsBaromVisibWave heightAir tempDewpointWater temp
2014-Sep-20 04:33N 27°35' W 082°46'0 0.0
2014-Sep-20 03:33N 27°35' W 082°46'0 0.0
2014-Sep-20 02:30N 27°35' W 082°46'2 2.6
2014-Sep-20 01:33N 27°37' W 082°44'2 2.4
2014-Sep-20 00:32N 27°35' W 082°46'0 0.0
2014-Sep-19 23:32N 27°35' W 082°46'0 0.0
2014-Sep-19 22:29N 27°35' W 082°46'0 0.0
2014-Sep-19 21:32N 27°35' W 082°46'0 0.0
2014-Sep-19 20:32N 27°35' W 082°46'0 0.0
2014-Sep-19 19:32N 27°35' W 082°46'0 0.0
2014-Sep-19 18:32N 27°35' W 082°46'0 0.0
2014-Sep-19 17:32N 27°35' W 082°46'0 0.0
2014-Sep-19 16:32N 27°35' W 082°46'0 0.0
2014-Sep-19 15:29N 27°35' W 082°46'0 0.0
2014-Sep-19 14:32N 27°35' W 082°46'0 0.0
2014-Sep-19 12:20N 27°35' W 082°46'0 0.0
2014-Sep-19 11:32N 27°35' W 082°46'0 0.0
2014-Sep-19 10:32N 27°35' W 082°46'0 0.0
2014-Sep-19 09:29N 27°35' W 082°46'0 0.0
2014-Sep-19 08:32N 27°35' W 082°46'1 1.3
2014-Sep-19 07:34N 27°36' W 082°46'3 3.2
2014-Sep-19 06:33N 27°36' W 082°50'4 3.6
2014-Sep-19 05:31N 27°35' W 082°46'0 0.0
2014-Sep-19 04:31N 27°35' W 082°46'0 0.0
2014-Sep-19 03:31N 27°35' W 082°46'0 0.0
2014-Sep-19 02:31N 27°35' W 082°46'0 0.0
2014-Sep-19 01:31N 27°35' W 082°46'0 0.0
2014-Sep-19 00:07N 27°35' W 082°46'0 0.0
2014-Sep-18 23:31N 27°35' W 082°46'2 2.5
2014-Sep-18 22:33N 27°37' W 082°44'2 2.4
2014-Sep-18 21:33N 27°35' W 082°46'2 2.0
2014-Sep-18 20:34N 27°37' W 082°44'2 1.6
2014-Sep-18 19:33N 27°36' W 082°46'1 1.1
2014-Sep-18 18:25N 27°35' W 082°46'0 0.0
2014-Sep-18 17:32N 27°35' W 082°46'0 0.0
2014-Sep-18 16:33N 27°35' W 082°46'2 2.4
2014-Sep-18 15:33N 27°37' W 082°44'2 1.6
2014-Sep-18 14:32N 27°36' W 082°45'1 0.8
2014-Sep-18 13:31N 27°35' W 082°46'0 0.0
2014-Sep-18 12:31N 27°35' W 082°46'0 0.0
2014-Sep-18 11:28N 27°35' W 082°46'0 0.0
2014-Sep-18 10:31N 27°35' W 082°46'0 0.0
2014-Sep-18 09:31N 27°35' W 082°46'0 0.0
2014-Sep-18 08:31N 27°35' W 082°46'0 0.0
2014-Sep-18 07:31N 27°35' W 082°46'0 0.0
2014-Sep-18 06:31N 27°35' W 082°46'0 0.0
2014-Sep-18 05:31N 27°35' W 082°46'0 0.0
2014-Sep-18 04:31N 27°35' W 082°46'0 0.0
2014-Sep-18 03:31N 27°35' W 082°46'0 0.0
2014-Sep-18 02:28N 27°35' W 082°46'0 0.0
2014-Sep-18 01:33N 27°35' W 082°46'6 5.9
2014-Sep-18 00:27N 27°36' W 082°53'8 9.1
2014-Sep-17 23:33N 27°37' W 082°44'0 0.0
2014-Sep-17 22:33N 27°37' W 082°44'2 2.4
2014-Sep-17 21:32N 27°35' W 082°46'0 0.0
2014-Sep-17 20:32N 27°35' W 082°46'0 0.0
2014-Sep-17 19:32N 27°35' W 082°46'0 0.0
2014-Sep-17 18:05N 27°35' W 082°46'0 0.0
2014-Sep-17 17:23N 27°35' W 082°46'0 0.0
2014-Sep-17 16:32N 27°35' W 082°46'0 0.0
2014-Sep-17 15:27N 27°35' W 082°46'0 0.0
2014-Sep-17 14:31N 27°35' W 082°46'0 0.0
2014-Sep-17 13:25N 27°35' W 082°46'0 0.0
2014-Sep-17 12:28N 27°35' W 082°46'0 0.0
2014-Sep-17 11:28N 27°35' W 082°46'0 0.1
2014-Sep-17 10:34N 27°35' W 082°45'0 0.1
2014-Sep-17 09:31N 27°35' W 082°46'0 0.0
2014-Sep-17 08:31N 27°35' W 082°46'0 0.0
2014-Sep-17 07:31N 27°35' W 082°46'0 0.0
2014-Sep-17 06:31N 27°35' W 082°46'0 0.0
2014-Sep-17 05:31N 27°35' W 082°46'0 0.0
2014-Sep-17 04:31N 27°35' W 082°46'0 0.0
2014-Sep-17 03:31N 27°35' W 082°46'0 0.0
2014-Sep-17 02:32N 27°35' W 082°46'0 0.0
2014-Sep-17 00:25N 27°35' W 082°46'0 0.0
2014-Sep-16 23:19N 27°35' W 082°46'0 0.0
2014-Sep-16 22:31N 27°35' W 082°46'0 0.0
2014-Sep-16 21:31N 27°35' W 082°46'0 0.0
2014-Sep-16 20:31N 27°35' W 082°46'0 0.0
2014-Sep-16 19:31N 27°35' W 082°46'0 0.0
2014-Sep-16 18:31N 27°35' W 082°46'0 0.0
2014-Sep-16 17:31N 27°35' W 082°46'0 0.0
2014-Sep-16 16:19N 27°35' W 082°46'0 0.0
2014-Sep-16 15:31N 27°35' W 082°46'0 0.0
2014-Sep-16 14:31N 27°35' W 082°46'0 0.0
2014-Sep-16 13:31N 27°35' W 082°46'0 0.0
2014-Sep-16 12:31N 27°35' W 082°46'0 0.0
2014-Sep-16 11:31N 27°35' W 082°46'0 0.0
2014-Sep-16 10:31N 27°35' W 082°46'0 0.0
2014-Sep-16 09:31N 27°35' W 082°46'0 0.0
2014-Sep-16 08:31N 27°35' W 082°46'0 0.0
2014-Sep-16 07:31N 27°35' W 082°46'0 0.0
2014-Sep-16 06:31N 27°35' W 082°46'0 0.0
2014-Sep-16 05:31N 27°35' W 082°46'0 0.0
2014-Sep-16 04:31N 27°35' W 082°46'0 0.0
2014-Sep-16 03:31N 27°35' W 082°46'0 0.0
2014-Sep-16 02:31N 27°35' W 082°46'0 0.0
2014-Sep-16 01:31N 27°35' W 082°46'0 0.0
2014-Sep-16 00:31N 27°35' W 082°46'0 0.0
2014-Sep-15 23:28N 27°35' W 082°46'0 0.0
2014-Sep-15 22:31N 27°35' W 082°46'0 0.0
2014-Sep-15 21:31N 27°35' W 082°46'0 0.0
2014-Sep-15 20:04N 27°35' W 082°46'0 0.0
2014-Sep-15 19:31N 27°35' W 082°46'0 0.0
2014-Sep-15 18:31N 27°35' W 082°46'0 0.0
2014-Sep-15 17:28N 27°35' W 082°46'0 0.0
2014-Sep-15 16:31N 27°35' W 082°46'0 0.0
2014-Sep-15 15:31N 27°35' W 082°46'0 0.0
2014-Sep-15 14:31N 27°35' W 082°46'0 0.0
2014-Sep-15 12:31N 27°35' W 082°46'0 0.0
2014-Sep-15 11:28N 27°35' W 082°46'0 0.0
2014-Sep-15 10:31N 27°35' W 082°46'0 0.0
2014-Sep-15 09:31N 27°35' W 082°46'0 0.0
2014-Sep-15 08:31N 27°35' W 082°46'0 0.0
2014-Sep-15 07:31N 27°35' W 082°46'0 0.0
2014-Sep-15 06:31N 27°35' W 082°46'0 0.0
2014-Sep-15 05:31N 27°35' W 082°46'0 0.0
2014-Sep-15 04:31N 27°35' W 082°46'0 0.0
2014-Sep-15 03:31N 27°35' W 082°46'0 0.0
2014-Sep-15 02:31N 27°35' W 082°46'0 0.0
2014-Sep-15 01:31N 27°35' W 082°46'0 0.0
2014-Sep-15 00:28N 27°35' W 082°46'0 0.0
2014-Sep-14 23:31N 27°35' W 082°46'0 0.0
2014-Sep-14 22:31N 27°35' W 082°46'0 0.0
2014-Sep-14 21:31N 27°35' W 082°46'0 0.0
2014-Sep-14 20:25N 27°35' W 082°46'0 0.0
2014-Sep-14 19:31N 27°35' W 082°46'0 0.0
2014-Sep-14 18:28N 27°35' W 082°46'0 0.0
2014-Sep-14 17:31N 27°35' W 082°46'0 0.0
2014-Sep-14 16:31N 27°35' W 082°46'0 0.0
2014-Sep-14 15:31N 27°35' W 082°46'0 0.0
2014-Sep-14 14:31N 27°35' W 082°46'0 0.0
2014-Sep-14 13:31N 27°35' W 082°46'0 0.0
2014-Sep-14 12:31N 27°35' W 082°46'0 0.0
2014-Sep-14 11:31N 27°35' W 082°46'0 0.0
2014-Sep-14 10:31N 27°35' W 082°46'0 0.0
2014-Sep-14 09:31N 27°35' W 082°46'0 0.0
2014-Sep-14 08:31N 27°35' W 082°46'0 0.0
2014-Sep-14 07:31N 27°35' W 082°46'0 0.0
2014-Sep-14 06:31N 27°35' W 082°46'0 0.0
2014-Sep-14 05:31N 27°35' W 082°46'0 0.0
2014-Sep-14 04:31N 27°35' W 082°46'0 0.0
2014-Sep-14 03:31N 27°35' W 082°46'0 0.0
2014-Sep-14 02:31N 27°35' W 082°46'0 0.0
2014-Sep-14 01:31N 27°35' W 082°46'0 0.0
2014-Sep-13 21:25N 27°35' W 082°46'0 0.0
2014-Sep-13 20:31N 27°35' W 082°46'0 0.0
2014-Sep-13 19:28N 27°35' W 082°46'0 0.0
2014-Sep-13 18:31N 27°35' W 082°46'0 0.0
2014-Sep-13 17:31N 27°35' W 082°46'0 0.0
2014-Sep-13 16:28N 27°35' W 082°46'0 0.0
2014-Sep-13 15:31N 27°35' W 082°46'0 0.0
2014-Sep-13 13:28N 27°35' W 082°46'0 0.0
2014-Sep-13 12:31N 27°35' W 082°46'0 0.0
2014-Sep-13 11:31N 27°35' W 082°46'0 0.0
2014-Sep-13 10:31N 27°35' W 082°46'0 0.0
2014-Sep-13 09:31N 27°35' W 082°46'0 0.0
2014-Sep-13 08:31N 27°35' W 082°46'0 0.0
2014-Sep-13 07:31N 27°35' W 082°46'0 0.0
2014-Sep-13 06:31N 27°35' W 082°46'0 0.0
2014-Sep-13 05:31N 27°35' W 082°46'0 0.0
2014-Sep-13 04:31N 27°35' W 082°46'0 0.0
2014-Sep-13 03:31N 27°35' W 082°46'0 0.0
2014-Sep-13 02:31N 27°35' W 082°46'0 0.0
2014-Sep-13 00:31N 27°35' W 082°46'0 0.0
2014-Sep-12 23:31N 27°35' W 082°46'0 0.0
2014-Sep-12 22:28N 27°35' W 082°46'0 0.0
2014-Sep-12 21:31N 27°35' W 082°46'0 0.0
2014-Sep-12 20:25N 27°35' W 082°46'0 0.0
2014-Sep-12 19:31N 27°35' W 082°46'0 0.0
2014-Sep-12 18:31N 27°35' W 082°46'0 0.0
2014-Sep-12 17:31N 27°35' W 082°46'0 0.0
2014-Sep-12 16:31N 27°35' W 082°46'0 0.0
2014-Sep-12 15:31N 27°35' W 082°46'0 0.0
2014-Sep-12 14:31N 27°35' W 082°46'0 0.0
2014-Sep-12 13:31N 27°35' W 082°46'0 0.0
2014-Sep-12 12:31N 27°35' W 082°46'0 0.0
2014-Sep-12 11:31N 27°35' W 082°46'0 0.0
2014-Sep-12 10:31N 27°35' W 082°46'0 0.0
2014-Sep-12 09:31N 27°35' W 082°46'0 0.0
2014-Sep-12 08:31N 27°35' W 082°46'0 0.0
2014-Sep-12 07:31N 27°35' W 082°46'0 0.0
2014-Sep-12 06:31N 27°35' W 082°46'0 0.0
2014-Sep-12 05:31N 27°35' W 082°46'0 0.0
2014-Sep-12 04:31N 27°35' W 082°46'0 0.0
2014-Sep-12 03:31N 27°35' W 082°46'0 0.0
2014-Sep-12 02:31N 27°35' W 082°46'0 0.0
2014-Sep-12 01:31N 27°35' W 082°46'0 0.0
2014-Sep-12 00:31N 27°35' W 082°46'0 0.0
2014-Sep-11 23:22N 27°35' W 082°46'0 0.0
2014-Sep-11 22:31N 27°35' W 082°46'0 0.0
2014-Sep-11 21:16N 27°35' W 082°46'0 0.0
2014-Sep-11 20:31N 27°35' W 082°46'0 0.0
2014-Sep-11 19:31N 27°35' W 082°46'0 0.0
2014-Sep-11 18:31N 27°35' W 082°46'0 0.0
2014-Sep-11 17:31N 27°35' W 082°46'0 0.0
2014-Sep-11 16:31N 27°35' W 082°46'5 5.6
2014-Sep-11 15:34N 27°41' W 082°45'3 1.7
2014-Sep-11 13:33N 27°43' W 082°43'8 8.5
2014-Sep-11 12:34N 27°35' W 082°46'0 0.0
2014-Sep-11 11:32N 27°35' W 082°46'0 0.0
2014-Sep-11 10:32N 27°35' W 082°46'0 0.0
2014-Sep-11 09:29N 27°35' W 082°46'0 0.0
2014-Sep-11 08:32N 27°35' W 082°46'0 0.0
2014-Sep-11 07:32N 27°35' W 082°46'0 0.0
2014-Sep-11 06:32N 27°35' W 082°46'0 0.0
2014-Sep-11 05:32N 27°35' W 082°46'0 0.0
2014-Sep-11 04:32N 27°35' W 082°46'0 0.0
2014-Sep-11 03:32N 27°35' W 082°46'0 0.0
2014-Sep-11 02:32N 27°35' W 082°46'0 0.0
2014-Sep-11 01:32N 27°35' W 082°46'0 0.0
2014-Sep-11 00:14N 27°35' W 082°46'0 0.0
2014-Sep-10 23:23N 27°35' W 082°46'0 0.0
2014-Sep-10 22:32N 27°35' W 082°46'0 0.0
2014-Sep-10 21:32N 27°35' W 082°46'0 0.0
2014-Sep-10 20:32N 27°35' W 082°46'0 0.0
2014-Sep-10 19:23N 27°35' W 082°46'0 0.0
2014-Sep-10 18:32N 27°35' W 082°46'0 0.0
2014-Sep-10 17:32N 27°35' W 082°46'0 0.0
2014-Sep-10 16:23N 27°35' W 082°46'0 0.0
2014-Sep-10 15:32N 27°35' W 082°46'0 0.0
2014-Sep-10 13:32N 27°35' W 082°46'0 0.0
2014-Sep-10 12:32N 27°35' W 082°46'0 0.0
2014-Sep-10 11:29N 27°35' W 082°46'0 0.0
2014-Sep-10 10:32N 27°35' W 082°46'0 0.0
2014-Sep-10 09:32N 27°35' W 082°46'0 0.0
2014-Sep-10 08:32N 27°35' W 082°46'0 0.0
2014-Sep-10 07:32N 27°35' W 082°46'0 0.0
2014-Sep-10 06:32N 27°35' W 082°46'0 0.0
2014-Sep-10 05:32N 27°35' W 082°46'  
Track history (hours):
 
Tides and Currents Weather Stations Pressure Air Temp Water Temp Dewpoint Dewpoint Depression Visibility Wind Speed Wind Dir Waves Ship Positions

Desoto

More information available from US FCC via Universal Licensing System and Coast Guard Vessel Documentation Center.

Last reported at 2014-Sep-20 04:33 UTC. Time now 2014-Sep-20 06:01 UTC.
Position N 27°35' W 082°46'.

Length 18 m.

Type: Pilot. MMSI: 367343870.

Date/timePositionNaut miles runAvg speedWind from/ knotsBaromVisibWave heightAir tempDewpointWater temp
2014-Sep-20 04:33N 27°35' W 082°46'0 0.0
2014-Sep-20 03:33N 27°35' W 082°46'0 0.0
2014-Sep-20 02:30N 27°35' W 082°46'2 2.6
2014-Sep-20 01:33N 27°37' W 082°44'2 2.4
2014-Sep-20 00:32N 27°35' W 082°46'0 0.0
2014-Sep-19 23:32N 27°35' W 082°46'0 0.0
2014-Sep-19 22:29N 27°35' W 082°46'0 0.0
2014-Sep-19 21:32N 27°35' W 082°46'0 0.0
2014-Sep-19 20:32N 27°35' W 082°46'0 0.0
2014-Sep-19 19:32N 27°35' W 082°46'0 0.0
2014-Sep-19 18:32N 27°35' W 082°46'0 0.0
2014-Sep-19 17:32N 27°35' W 082°46'0 0.0
2014-Sep-19 16:32N 27°35' W 082°46'0 0.0
2014-Sep-19 15:29N 27°35' W 082°46'0 0.0
2014-Sep-19 14:32N 27°35' W 082°46'0 0.0
2014-Sep-19 12:20N 27°35' W 082°46'0 0.0
2014-Sep-19 11:32N 27°35' W 082°46'0 0.0
2014-Sep-19 10:32N 27°35' W 082°46'0 0.0
2014-Sep-19 09:29N 27°35' W 082°46'0 0.0
2014-Sep-19 08:32N 27°35' W 082°46'1 1.3
2014-Sep-19 07:34N 27°36' W 082°46'3 3.2
2014-Sep-19 06:33N 27°36' W 082°50'4 3.6
2014-Sep-19 05:31N 27°35' W 082°46'0 0.0
2014-Sep-19 04:31N 27°35' W 082°46'0 0.0
2014-Sep-19 03:31N 27°35' W 082°46'0 0.0
2014-Sep-19 02:31N 27°35' W 082°46'0 0.0
2014-Sep-19 01:31N 27°35' W 082°46'0 0.0
2014-Sep-19 00:07N 27°35' W 082°46'0 0.0
2014-Sep-18 23:31N 27°35' W 082°46'2 2.5
2014-Sep-18 22:33N 27°37' W 082°44'2 2.4
2014-Sep-18 21:33N 27°35' W 082°46'2 2.0
2014-Sep-18 20:34N 27°37' W 082°44'2 1.6
2014-Sep-18 19:33N 27°36' W 082°46'1 1.1
2014-Sep-18 18:25N 27°35' W 082°46'0 0.0
2014-Sep-18 17:32N 27°35' W 082°46'0 0.0
2014-Sep-18 16:33N 27°35' W 082°46'2 2.4
2014-Sep-18 15:33N 27°37' W 082°44'2 1.6
2014-Sep-18 14:32N 27°36' W 082°45'1 0.8
2014-Sep-18 13:31N 27°35' W 082°46'0 0.0
2014-Sep-18 12:31N 27°35' W 082°46'0 0.0
2014-Sep-18 11:28N 27°35' W 082°46'0 0.0
2014-Sep-18 10:31N 27°35' W 082°46'0 0.0
2014-Sep-18 09:31N 27°35' W 082°46'0 0.0
2014-Sep-18 08:31N 27°35' W 082°46'0 0.0
2014-Sep-18 07:31N 27°35' W 082°46'0 0.0
2014-Sep-18 06:31N 27°35' W 082°46'0 0.0
2014-Sep-18 05:31N 27°35' W 082°46'0 0.0
2014-Sep-18 04:31N 27°35' W 082°46'0 0.0
2014-Sep-18 03:31N 27°35' W 082°46'0 0.0
2014-Sep-18 02:28N 27°35' W 082°46'0 0.0
2014-Sep-18 01:33N 27°35' W 082°46'6 5.9
2014-Sep-18 00:27N 27°36' W 082°53'8 9.1
2014-Sep-17 23:33N 27°37' W 082°44'0 0.0
2014-Sep-17 22:33N 27°37' W 082°44'2 2.4
2014-Sep-17 21:32N 27°35' W 082°46'0 0.0
2014-Sep-17 20:32N 27°35' W 082°46'0 0.0
2014-Sep-17 19:32N 27°35' W 082°46'0 0.0
2014-Sep-17 18:05N 27°35' W 082°46'0 0.0
2014-Sep-17 17:23N 27°35' W 082°46'0 0.0
2014-Sep-17 16:32N 27°35' W 082°46'0 0.0
2014-Sep-17 15:27N 27°35' W 082°46'0 0.0
2014-Sep-17 14:31N 27°35' W 082°46'0 0.0
2014-Sep-17 13:25N 27°35' W 082°46'0 0.0
2014-Sep-17 12:28N 27°35' W 082°46'0 0.0
2014-Sep-17 11:28N 27°35' W 082°46'0 0.1
2014-Sep-17 10:34N 27°35' W 082°45'0 0.1
2014-Sep-17 09:31N 27°35' W 082°46'0 0.0
2014-Sep-17 08:31N 27°35' W 082°46'0 0.0
2014-Sep-17 07:31N 27°35' W 082°46'0 0.0
2014-Sep-17 06:31N 27°35' W 082°46'0 0.0
2014-Sep-17 05:31N 27°35' W 082°46'0 0.0
2014-Sep-17 04:31N 27°35' W 082°46'0 0.0
2014-Sep-17 03:31N 27°35' W 082°46'0 0.0
2014-Sep-17 02:32N 27°35' W 082°46'0 0.0
2014-Sep-17 00:25N 27°35' W 082°46'0 0.0
2014-Sep-16 23:19N 27°35' W 082°46'0 0.0
2014-Sep-16 22:31N 27°35' W 082°46'0 0.0
2014-Sep-16 21:31N 27°35' W 082°46'0 0.0
2014-Sep-16 20:31N 27°35' W 082°46'0 0.0
2014-Sep-16 19:31N 27°35' W 082°46'0 0.0
2014-Sep-16 18:31N 27°35' W 082°46'0 0.0
2014-Sep-16 17:31N 27°35' W 082°46'0 0.0
2014-Sep-16 16:19N 27°35' W 082°46'0 0.0
2014-Sep-16 15:31N 27°35' W 082°46'0 0.0
2014-Sep-16 14:31N 27°35' W 082°46'0 0.0
2014-Sep-16 13:31N 27°35' W 082°46'0 0.0
2014-Sep-16 12:31N 27°35' W 082°46'0 0.0
2014-Sep-16 11:31N 27°35' W 082°46'0 0.0
2014-Sep-16 10:31N 27°35' W 082°46'0 0.0
2014-Sep-16 09:31N 27°35' W 082°46'0 0.0
2014-Sep-16 08:31N 27°35' W 082°46'0 0.0
2014-Sep-16 07:31N 27°35' W 082°46'0 0.0
2014-Sep-16 06:31N 27°35' W 082°46'0 0.0
2014-Sep-16 05:31N 27°35' W 082°46'0 0.0
2014-Sep-16 04:31N 27°35' W 082°46'0 0.0
2014-Sep-16 03:31N 27°35' W 082°46'0 0.0
2014-Sep-16 02:31N 27°35' W 082°46'0 0.0
2014-Sep-16 01:31N 27°35' W 082°46'0 0.0
2014-Sep-16 00:31N 27°35' W 082°46'0 0.0
2014-Sep-15 23:28N 27°35' W 082°46'0 0.0
2014-Sep-15 22:31N 27°35' W 082°46'0 0.0
2014-Sep-15 21:31N 27°35' W 082°46'0 0.0
2014-Sep-15 20:04N 27°35' W 082°46'0 0.0
2014-Sep-15 19:31N 27°35' W 082°46'0 0.0
2014-Sep-15 18:31N 27°35' W 082°46'0 0.0
2014-Sep-15 17:28N 27°35' W 082°46'0 0.0
2014-Sep-15 16:31N 27°35' W 082°46'0 0.0
2014-Sep-15 15:31N 27°35' W 082°46'0 0.0
2014-Sep-15 14:31N 27°35' W 082°46'0 0.0
2014-Sep-15 12:31N 27°35' W 082°46'0 0.0
2014-Sep-15 11:28N 27°35' W 082°46'0 0.0
2014-Sep-15 10:31N 27°35' W 082°46'0 0.0
2014-Sep-15 09:31N 27°35' W 082°46'0 0.0
2014-Sep-15 08:31N 27°35' W 082°46'0 0.0
2014-Sep-15 07:31N 27°35' W 082°46'0 0.0
2014-Sep-15 06:31N 27°35' W 082°46'0 0.0
2014-Sep-15 05:31N 27°35' W 082°46'0 0.0
2014-Sep-15 04:31N 27°35' W 082°46'0 0.0
2014-Sep-15 03:31N 27°35' W 082°46'0 0.0
2014-Sep-15 02:31N 27°35' W 082°46'0 0.0
2014-Sep-15 01:31N 27°35' W 082°46'0 0.0
2014-Sep-15 00:28N 27°35' W 082°46'0 0.0
2014-Sep-14 23:31N 27°35' W 082°46'0 0.0
2014-Sep-14 22:31N 27°35' W 082°46'0 0.0
2014-Sep-14 21:31N 27°35' W 082°46'0 0.0
2014-Sep-14 20:25N 27°35' W 082°46'0 0.0
2014-Sep-14 19:31N 27°35' W 082°46'0 0.0
2014-Sep-14 18:28N 27°35' W 082°46'0 0.0
2014-Sep-14 17:31N 27°35' W 082°46'0 0.0
2014-Sep-14 16:31N 27°35' W 082°46'0 0.0
2014-Sep-14 15:31N 27°35' W 082°46'0 0.0
2014-Sep-14 14:31N 27°35' W 082°46'0 0.0
2014-Sep-14 13:31N 27°35' W 082°46'0 0.0
2014-Sep-14 12:31N 27°35' W 082°46'0 0.0
2014-Sep-14 11:31N 27°35' W 082°46'0 0.0
2014-Sep-14 10:31N 27°35' W 082°46'0 0.0
2014-Sep-14 09:31N 27°35' W 082°46'0 0.0
2014-Sep-14 08:31N 27°35' W 082°46'0 0.0
2014-Sep-14 07:31N 27°35' W 082°46'0 0.0
2014-Sep-14 06:31N 27°35' W 082°46'0 0.0
2014-Sep-14 05:31N 27°35' W 082°46'0 0.0
2014-Sep-14 04:31N 27°35' W 082°46'0 0.0
2014-Sep-14 03:31N 27°35' W 082°46'0 0.0
2014-Sep-14 02:31N 27°35' W 082°46'0 0.0
2014-Sep-14 01:31N 27°35' W 082°46'0 0.0
2014-Sep-13 21:25N 27°35' W 082°46'0 0.0
2014-Sep-13 20:31N 27°35' W 082°46'0 0.0
2014-Sep-13 19:28N 27°35' W 082°46'0 0.0
2014-Sep-13 18:31N 27°35' W 082°46'0 0.0
2014-Sep-13 17:31N 27°35' W 082°46'0 0.0
2014-Sep-13 16:28N 27°35' W 082°46'0 0.0
2014-Sep-13 15:31N 27°35' W 082°46'0 0.0
2014-Sep-13 13:28N 27°35' W 082°46'0 0.0
2014-Sep-13 12:31N 27°35' W 082°46'0 0.0
2014-Sep-13 11:31N 27°35' W 082°46'0 0.0
2014-Sep-13 10:31N 27°35' W 082°46'0 0.0
2014-Sep-13 09:31N 27°35' W 082°46'0 0.0
2014-Sep-13 08:31N 27°35' W 082°46'0 0.0
2014-Sep-13 07:31N 27°35' W 082°46'0 0.0
2014-Sep-13 06:31N 27°35' W 082°46'0 0.0
2014-Sep-13 05:31N 27°35' W 082°46'0 0.0
2014-Sep-13 04:31N 27°35' W 082°46'0 0.0
2014-Sep-13 03:31N 27°35' W 082°46'0 0.0
2014-Sep-13 02:31N 27°35' W 082°46'0 0.0
2014-Sep-13 00:31N 27°35' W 082°46'0 0.0
2014-Sep-12 23:31N 27°35' W 082°46'0 0.0
2014-Sep-12 22:28N 27°35' W 082°46'0 0.0
2014-Sep-12 21:31N 27°35' W 082°46'0 0.0
2014-Sep-12 20:25N 27°35' W 082°46'0 0.0
2014-Sep-12 19:31N 27°35' W 082°46'0 0.0
2014-Sep-12 18:31N 27°35' W 082°46'0 0.0
2014-Sep-12 17:31N 27°35' W 082°46'0 0.0
2014-Sep-12 16:31N 27°35' W 082°46'0 0.0
2014-Sep-12 15:31N 27°35' W 082°46'0 0.0
2014-Sep-12 14:31N 27°35' W 082°46'0 0.0
2014-Sep-12 13:31N 27°35' W 082°46'0 0.0
2014-Sep-12 12:31N 27°35' W 082°46'0 0.0
2014-Sep-12 11:31N 27°35' W 082°46'0 0.0
2014-Sep-12 10:31N 27°35' W 082°46'0 0.0
2014-Sep-12 09:31N 27°35' W 082°46'0 0.0
2014-Sep-12 08:31N 27°35' W 082°46'0 0.0
2014-Sep-12 07:31N 27°35' W 082°46'0 0.0
2014-Sep-12 06:31N 27°35' W 082°46'0 0.0
2014-Sep-12 05:31N 27°35' W 082°46'0 0.0
2014-Sep-12 04:31N 27°35' W 082°46'0 0.0
2014-Sep-12 03:31N 27°35' W 082°46'0 0.0
2014-Sep-12 02:31N 27°35' W 082°46'0 0.0
2014-Sep-12 01:31N 27°35' W 082°46'0 0.0
2014-Sep-12 00:31N 27°35' W 082°46'0 0.0
2014-Sep-11 23:22N 27°35' W 082°46'0 0.0
2014-Sep-11 22:31N 27°35' W 082°46'0 0.0
2014-Sep-11 21:16N 27°35' W 082°46'0 0.0
2014-Sep-11 20:31N 27°35' W 082°46'0 0.0
2014-Sep-11 19:31N 27°35' W 082°46'0 0.0
2014-Sep-11 18:31N 27°35' W 082°46'0 0.0
2014-Sep-11 17:31N 27°35' W 082°46'0 0.0
2014-Sep-11 16:31N 27°35' W 082°46'5 5.6
2014-Sep-11 15:34N 27°41' W 082°45'3 1.7
2014-Sep-11 13:33N 27°43' W 082°43'8 8.5
2014-Sep-11 12:34N 27°35' W 082°46'0 0.0
2014-Sep-11 11:32N 27°35' W 082°46'0 0.0
2014-Sep-11 10:32N 27°35' W 082°46'0 0.0
2014-Sep-11 09:29N 27°35' W 082°46'0 0.0
2014-Sep-11 08:32N 27°35' W 082°46'0 0.0
2014-Sep-11 07:32N 27°35' W 082°46'0 0.0
2014-Sep-11 06:32N 27°35' W 082°46'0 0.0
2014-Sep-11 05:32N 27°35' W 082°46'0 0.0
2014-Sep-11 04:32N 27°35' W 082°46'0 0.0
2014-Sep-11 03:32N 27°35' W 082°46'0 0.0
2014-Sep-11 02:32N 27°35' W 082°46'0 0.0
2014-Sep-11 01:32N 27°35' W 082°46'0 0.0
2014-Sep-11 00:14N 27°35' W 082°46'0 0.0
2014-Sep-10 23:23N 27°35' W 082°46'0 0.0
2014-Sep-10 22:32N 27°35' W 082°46'0 0.0
2014-Sep-10 21:32N 27°35' W 082°46'0 0.0
2014-Sep-10 20:32N 27°35' W 082°46'0 0.0
2014-Sep-10 19:23N 27°35' W 082°46'0 0.0
2014-Sep-10 18:32N 27°35' W 082°46'0 0.0
2014-Sep-10 17:32N 27°35' W 082°46'0 0.0
2014-Sep-10 16:23N 27°35' W 082°46'0 0.0
2014-Sep-10 15:32N 27°35' W 082°46'0 0.0
2014-Sep-10 13:32N 27°35' W 082°46'0 0.0
2014-Sep-10 12:32N 27°35' W 082°46'0 0.0
2014-Sep-10 11:29N 27°35' W 082°46'0 0.0
2014-Sep-10 10:32N 27°35' W 082°46'0 0.0
2014-Sep-10 09:32N 27°35' W 082°46'0 0.0
2014-Sep-10 08:32N 27°35' W 082°46'0 0.0
2014-Sep-10 07:32N 27°35' W 082°46'0 0.0
2014-Sep-10 06:32N 27°35' W 082°46'0 0.0
2014-Sep-10 05:32N 27°35' W 082°46'  

Dump ship's entire track history